sensor_id;sensor_type;location;lat;lon;timestamp;temperature;humidity
1181;DHT22;579;52.046;8.532;2023-02-11T00:01:04;7.10;1.00
1181;DHT22;579;52.046;8.532;2023-02-11T00:03:36;7.30;1.00
1181;DHT22;579;52.046;8.532;2023-02-11T00:06:06;7.40;1.00
1181;DHT22;579;52.046;8.532;2023-02-11T00:08:51;7.50;1.00
1181;DHT22;579;52.046;8.532;2023-02-11T00:11:19;7.60;1.00
1181;DHT22;579;52.046;8.532;2023-02-11T00:13:47;7.70;1.00
1181;DHT22;579;52.046;8.532;2023-02-11T00:16:16;7.70;1.00
1181;DHT22;579;52.046;8.532;2023-02-11T00:18:43;7.60;1.00
1181;DHT22;579;52.046;8.532;2023-02-11T00:21:12;7.70;1.00
1181;DHT22;579;52.046;8.532;2023-02-11T00:30:53;7.40;1.00
1181;DHT22;579;52.046;8.532;2023-02-11T00:33:20;7.40;1.00
1181;DHT22;579;52.046;8.532;2023-02-11T00:35:47;7.60;1.00
1181;DHT22;579;52.046;8.532;2023-02-11T00:38:14;7.70;1.00
1181;DHT22;579;52.046;8.532;2023-02-11T00:40:40;7.70;1.00
1181;DHT22;579;52.046;8.532;2023-02-11T00:45:33;7.40;1.00
1181;DHT22;579;52.046;8.532;2023-02-11T00:51:38;7.60;1.00
1181;DHT22;579;52.046;8.532;2023-02-11T00:54:05;7.40;1.00
1181;DHT22;579;52.046;8.532;2023-02-11T00:56:33;7.50;1.00
1181;DHT22;579;52.046;8.532;2023-02-11T00:58:59;7.50;1.00
1181;DHT22;579;52.046;8.532;2023-02-11T01:01:26;7.50;1.00
1181;DHT22;579;52.046;8.532;2023-02-11T01:03:52;7.50;1.00
1181;DHT22;579;52.046;8.532;2023-02-11T01:06:19;7.40;1.00
1181;DHT22;579;52.046;8.532;2023-02-11T01:12:16;7.40;1.00
1181;DHT22;579;52.046;8.532;2023-02-11T01:14:43;7.60;1.00
1181;DHT22;579;52.046;8.532;2023-02-11T01:17:09;7.70;1.00
1181;DHT22;579;52.046;8.532;2023-02-11T01:19:36;7.60;1.00
1181;DHT22;579;52.046;8.532;2023-02-11T01:22:02;7.90;1.00
1181;DHT22;579;52.046;8.532;2023-02-11T01:24:29;7.80;1.00
1181;DHT22;579;52.046;8.532;2023-02-11T01:26:56;7.40;1.00
1181;DHT22;579;52.046;8.532;2023-02-11T01:33:45;7.10;1.00
1181;DHT22;579;52.046;8.532;2023-02-11T01:36:11;7.10;1.00
1181;DHT22;579;52.046;8.532;2023-02-11T01:38:38;7.00;1.00
1181;DHT22;579;52.046;8.532;2023-02-11T01:41:07;7.10;1.00
1181;DHT22;579;52.046;8.532;2023-02-11T01:43:37;7.40;1.00
1181;DHT22;579;52.046;8.532;2023-02-11T01:46:16;7.40;1.00
1181;DHT22;579;52.046;8.532;2023-02-11T01:51:45;6.80;1.00
1181;DHT22;579;52.046;8.532;2023-02-11T01:54:15;6.80;1.00
1181;DHT22;579;52.046;8.532;2023-02-11T01:57:03;7.00;1.00
1181;DHT22;579;52.046;8.532;2023-02-11T01:59:56;7.10;1.00
1181;DHT22;579;52.046;8.532;2023-02-11T02:02:32;7.20;1.00
1181;DHT22;579;52.046;8.532;2023-02-11T02:05:05;7.40;1.00
1181;DHT22;579;52.046;8.532;2023-02-11T02:10:19;7.50;1.00
1181;DHT22;579;52.046;8.532;2023-02-11T02:12:46;5.30;1.00
1181;DHT22;579;52.046;8.532;2023-02-11T02:15:28;7.60;1.00
1181;DHT22;579;52.046;8.532;2023-02-11T02:18:07;7.40;1.00
1181;DHT22;579;52.046;8.532;2023-02-11T02:24:37;7.10;1.00
1181;DHT22;579;52.046;8.532;2023-02-11T02:34:36;7.00;1.00
1181;DHT22;579;52.046;8.532;2023-02-11T02:37:09;7.00;1.00
1181;DHT22;579;52.046;8.532;2023-02-11T02:39:38;7.20;1.00
1181;DHT22;579;52.046;8.532;2023-02-11T02:42:05;7.10;1.00
1181;DHT22;579;52.046;8.532;2023-02-11T02:44:31;7.10;1.00
1181;DHT22;579;52.046;8.532;2023-02-11T02:46:58;6.80;1.00
1181;DHT22;579;52.046;8.532;2023-02-11T02:52:20;7.30;1.00
1181;DHT22;579;52.046;8.532;2023-02-11T02:55:11;7.20;1.00
1181;DHT22;579;52.046;8.532;2023-02-11T03:01:05;7.00;1.00
1181;DHT22;579;52.046;8.532;2023-02-11T03:03:42;6.70;1.00
1181;DHT22;579;52.046;8.532;2023-02-11T03:06:16;6.40;1.00
1181;DHT22;579;52.046;8.532;2023-02-11T03:13:48;6.70;1.00
1181;DHT22;579;52.046;8.532;2023-02-11T03:16:18;6.60;1.00
1181;DHT22;579;52.046;8.532;2023-02-11T03:18:49;6.80;1.00
1181;DHT22;579;52.046;8.532;2023-02-11T03:21:19;6.90;1.00
1181;DHT22;579;52.046;8.532;2023-02-11T03:23:48;7.00;1.00
1181;DHT22;579;52.046;8.532;2023-02-11T03:26:22;6.70;1.00
1181;DHT22;579;52.046;8.532;2023-02-11T03:31:53;6.80;1.00
1181;DHT22;579;52.046;8.532;2023-02-11T03:34:29;6.60;1.00
1181;DHT22;579;52.046;8.532;2023-02-11T03:37:02;6.60;1.00
1181;DHT22;579;52.046;8.532;2023-02-11T03:39:37;6.70;1.00
1181;DHT22;579;52.046;8.532;2023-02-11T03:42:08;6.80;1.00
1181;DHT22;579;52.046;8.532;2023-02-11T03:44:39;6.80;1.00
1181;DHT22;579;52.046;8.532;2023-02-11T03:50:02;6.50;1.00
1181;DHT22;579;52.046;8.532;2023-02-11T03:52:31;6.60;1.00
1181;DHT22;579;52.046;8.532;2023-02-11T03:54:59;6.80;1.00
1181;DHT22;579;52.046;8.532;2023-02-11T03:57:29;6.60;1.00
1181;DHT22;579;52.046;8.532;2023-02-11T03:59:56;6.70;1.00
1181;DHT22;579;52.046;8.532;2023-02-11T04:02:27;6.80;1.00
1181;DHT22;579;52.046;8.532;2023-02-11T04:04:55;6.90;1.00
1181;DHT22;579;52.046;8.532;2023-02-11T04:10:03;6.90;1.00
1181;DHT22;579;52.046;8.532;2023-02-11T04:12:30;6.70;1.00
1181;DHT22;579;52.046;8.532;2023-02-11T04:14:57;6.50;1.00
1181;DHT22;579;52.046;8.532;2023-02-11T04:17:23;6.60;1.00
1181;DHT22;579;52.046;8.532;2023-02-11T04:19:50;6.60;1.00
1181;DHT22;579;52.046;8.532;2023-02-11T04:22:16;6.70;1.00
1181;DHT22;579;52.046;8.532;2023-02-11T04:24:43;6.70;1.00
1181;DHT22;579;52.046;8.532;2023-02-11T04:30:49;6.50;1.00
1181;DHT22;579;52.046;8.532;2023-02-11T04:33:16;6.50;1.00
1181;DHT22;579;52.046;8.532;2023-02-11T04:35:43;6.50;1.00
1181;DHT22;579;52.046;8.532;2023-02-11T04:38:09;6.60;1.00
1181;DHT22;579;52.046;8.532;2023-02-11T04:40:36;6.60;1.00
1181;DHT22;579;52.046;8.532;2023-02-11T04:43:02;6.70;1.00
1181;DHT22;579;52.046;8.532;2023-02-11T04:45:29;6.90;1.00
1181;DHT22;579;52.046;8.532;2023-02-11T04:51:36;7.00;1.00
1181;DHT22;579;52.046;8.532;2023-02-11T04:54:03;7.10;1.00
1181;DHT22;579;52.046;8.532;2023-02-11T04:56:29;7.20;1.00
1181;DHT22;579;52.046;8.532;2023-02-11T04:58:56;6.70;1.00
1181;DHT22;579;52.046;8.532;2023-02-11T05:01:22;6.70;1.00
1181;DHT22;579;52.046;8.532;2023-02-11T05:03:49;6.90;1.00
1181;DHT22;579;52.046;8.532;2023-02-11T05:06:16;6.70;1.00
1181;DHT22;579;52.046;8.532;2023-02-11T05:11:21;6.80;1.00
1181;DHT22;579;52.046;8.532;2023-02-11T05:13:48;6.90;1.00
1181;DHT22;579;52.046;8.532;2023-02-11T05:16:15;7.00;1.00
1181;DHT22;579;52.046;8.532;2023-02-11T05:18:44;7.20;1.00
1181;DHT22;579;52.046;8.532;2023-02-11T05:21:13;7.00;1.00
1181;DHT22;579;52.046;8.532;2023-02-11T05:23:41;7.10;1.00
1181;DHT22;579;52.046;8.532;2023-02-11T05:26:09;7.10;1.00
1181;DHT22;579;52.046;8.532;2023-02-11T05:33:46;7.30;1.00
1181;DHT22;579;52.046;8.532;2023-02-11T05:36:13;7.70;1.00
1181;DHT22;579;52.046;8.532;2023-02-11T05:38:41;7.60;1.00
1181;DHT22;579;52.046;8.532;2023-02-11T05:41:09;7.40;1.00
1181;DHT22;579;52.046;8.532;2023-02-11T05:46:04;7.30;1.00
1181;DHT22;579;52.046;8.532;2023-02-11T05:54:48;7.20;1.00
1181;DHT22;579;52.046;8.532;2023-02-11T05:57:15;7.30;1.00
1181;DHT22;579;52.046;8.532;2023-02-11T05:59:42;7.30;1.00
1181;DHT22;579;52.046;8.532;2023-02-11T06:02:09;7.60;1.00
1181;DHT22;579;52.046;8.532;2023-02-11T06:04:37;7.80;1.00
1181;DHT22;579;52.046;8.532;2023-02-11T06:07:04;7.80;1.00
1181;DHT22;579;52.046;8.532;2023-02-11T06:09:32;7.60;1.00
1181;DHT22;579;52.046;8.532;2023-02-11T06:15:54;7.40;1.00
1181;DHT22;579;52.046;8.532;2023-02-11T06:18:22;7.30;1.00
1181;DHT22;579;52.046;8.532;2023-02-11T06:20:48;7.10;1.00
1181;DHT22;579;52.046;8.532;2023-02-11T06:23:15;7.20;1.00
1181;DHT22;579;52.046;8.532;2023-02-11T06:25:42;7.00;1.00
1181;DHT22;579;52.046;8.532;2023-02-11T06:28:09;7.00;1.00
1181;DHT22;579;52.046;8.532;2023-02-11T06:30:35;7.10;1.00
1181;DHT22;579;52.046;8.532;2023-02-11T06:35:38;6.80;1.00
1181;DHT22;579;52.046;8.532;2023-02-11T06:38:04;6.90;1.00
1181;DHT22;579;52.046;8.532;2023-02-11T06:40:31;6.20;1.00
1181;DHT22;579;52.046;8.532;2023-02-11T06:42:58;7.20;1.00
1181;DHT22;579;52.046;8.532;2023-02-11T06:45:28;7.10;1.00
1181;DHT22;579;52.046;8.532;2023-02-11T06:50:21;7.40;1.00
1181;DHT22;579;52.046;8.532;2023-02-11T06:56:41;7.60;1.00
1181;DHT22;579;52.046;8.532;2023-02-11T07:01:36;7.50;1.00
1181;DHT22;579;52.046;8.532;2023-02-11T07:04:02;8.00;1.00
1181;DHT22;579;52.046;8.532;2023-02-11T07:06:29;7.50;1.00
1181;DHT22;579;52.046;8.532;2023-02-11T07:08:56;7.50;1.00
1181;DHT22;579;52.046;8.532;2023-02-11T07:11:25;7.60;1.00
1181;DHT22;579;52.046;8.532;2023-02-11T07:17:15;7.60;1.00
1181;DHT22;579;52.046;8.532;2023-02-11T07:19:41;7.70;1.00
1181;DHT22;579;52.046;8.532;2023-02-11T07:22:07;7.70;1.00
1181;DHT22;579;52.046;8.532;2023-02-11T07:24:33;8.10;1.00
1181;DHT22;579;52.046;8.532;2023-02-11T07:27:00;7.90;1.00
1181;DHT22;579;52.046;8.532;2023-02-11T07:29:26;8.00;1.00
1181;DHT22;579;52.046;8.532;2023-02-11T07:31:52;7.90;1.00
1181;DHT22;579;52.046;8.532;2023-02-11T07:39:23;8.00;1.00
1181;DHT22;579;52.046;8.532;2023-02-11T07:41:52;7.70;1.00
1181;DHT22;579;52.046;8.532;2023-02-11T07:44:19;7.70;1.00
1181;DHT22;579;52.046;8.532;2023-02-11T07:46:45;7.80;1.00
1181;DHT22;579;52.046;8.532;2023-02-11T07:49:13;7.90;1.00
1181;DHT22;579;52.046;8.532;2023-02-11T07:51:40;7.90;1.00
1181;DHT22;579;52.046;8.532;2023-02-11T07:54:10;7.70;1.00
1181;DHT22;579;52.046;8.532;2023-02-11T08:00:16;7.20;1.00
1181;DHT22;579;52.046;8.532;2023-02-11T08:02:43;7.20;1.00
1181;DHT22;579;52.046;8.532;2023-02-11T08:05:09;7.20;1.00
1181;DHT22;579;52.046;8.532;2023-02-11T08:07:36;7.10;1.00
1181;DHT22;579;52.046;8.532;2023-02-11T08:10:03;7.30;1.00
1181;DHT22;579;52.046;8.532;2023-02-11T08:12:29;7.30;1.00
1181;DHT22;579;52.046;8.532;2023-02-11T08:14:56;7.30;1.00
1181;DHT22;579;52.046;8.532;2023-02-11T08:21:15;7.30;1.00
1181;DHT22;579;52.046;8.532;2023-02-11T08:23:43;7.20;1.00
1181;DHT22;579;52.046;8.532;2023-02-11T08:26:11;7.20;1.00
1181;DHT22;579;52.046;8.532;2023-02-11T08:28:40;6.90;1.00
1181;DHT22;579;52.046;8.532;2023-02-11T08:31:08;7.00;1.00
1181;DHT22;579;52.046;8.532;2023-02-11T08:33:36;7.00;1.00
1181;DHT22;579;52.046;8.532;2023-02-11T08:41:46;7.40;1.00
1181;DHT22;579;52.046;8.532;2023-02-11T08:44:14;7.40;1.00
1181;DHT22;579;52.046;8.532;2023-02-11T08:46:40;7.30;1.00
1181;DHT22;579;52.046;8.532;2023-02-11T08:49:07;7.00;1.00
1181;DHT22;579;52.046;8.532;2023-02-11T08:51:34;7.10;1.00
1181;DHT22;579;52.046;8.532;2023-02-11T08:54:01;7.30;1.00
1181;DHT22;579;52.046;8.532;2023-02-11T08:56:28;7.20;1.00
1181;DHT22;579;52.046;8.532;2023-02-11T09:02:45;7.20;1.00
1181;DHT22;579;52.046;8.532;2023-02-11T09:05:13;7.40;1.00
1181;DHT22;579;52.046;8.532;2023-02-11T09:07:39;7.30;1.00
1181;DHT22;579;52.046;8.532;2023-02-11T09:10:07;7.30;1.00
1181;DHT22;579;52.046;8.532;2023-02-11T09:12:33;7.30;1.00
1181;DHT22;579;52.046;8.532;2023-02-11T09:15:00;7.00;1.00
1181;DHT22;579;52.046;8.532;2023-02-11T09:17:27;7.50;1.00
1181;DHT22;579;52.046;8.532;2023-02-11T09:22:33;7.50;1.00
1181;DHT22;579;52.046;8.532;2023-02-11T09:25:00;7.20;1.00
1181;DHT22;579;52.046;8.532;2023-02-11T09:27:26;7.40;1.00
1181;DHT22;579;52.046;8.532;2023-02-11T09:29:53;7.50;1.00
1181;DHT22;579;52.046;8.532;2023-02-11T09:32:19;7.30;1.00
1181;DHT22;579;52.046;8.532;2023-02-11T09:34:45;7.50;1.00
1181;DHT22;579;52.046;8.532;2023-02-11T09:37:12;7.50;1.00
1181;DHT22;579;52.046;8.532;2023-02-11T09:42:32;7.40;1.00
1181;DHT22;579;52.046;8.532;2023-02-11T09:45:11;7.50;1.00
1181;DHT22;579;52.046;8.532;2023-02-11T09:47:46;7.50;1.00
1181;DHT22;579;52.046;8.532;2023-02-11T09:50:18;7.60;1.00
1181;DHT22;579;52.046;8.532;2023-02-11T09:52:53;7.50;1.00
1181;DHT22;579;52.046;8.532;2023-02-11T09:55:24;7.70;1.00
1181;DHT22;579;52.046;8.532;2023-02-11T09:57:53;8.00;1.00
1181;DHT22;579;52.046;8.532;2023-02-11T10:05:27;8.30;1.00
1181;DHT22;579;52.046;8.532;2023-02-11T10:08:04;8.40;1.00
1181;DHT22;579;52.046;8.532;2023-02-11T10:10:46;8.40;1.00
1181;DHT22;579;52.046;8.532;2023-02-11T10:13:36;8.20;1.00
1181;DHT22;579;52.046;8.532;2023-02-11T10:16:20;8.20;1.00
1181;DHT22;579;52.046;8.532;2023-02-11T10:19:11;8.40;1.00
1181;DHT22;579;52.046;8.532;2023-02-11T10:24:31;8.50;1.00
1181;DHT22;579;52.046;8.532;2023-02-11T10:26:58;8.50;1.00
1181;DHT22;579;52.046;8.532;2023-02-11T10:29:33;8.70;1.00
1181;DHT22;579;52.046;8.532;2023-02-11T10:32:05;8.60;1.00
1181;DHT22;579;52.046;8.532;2023-02-11T10:34:38;8.60;1.00
1181;DHT22;579;52.046;8.532;2023-02-11T10:37:07;8.60;1.00
1181;DHT22;579;52.046;8.532;2023-02-11T10:42:15;8.80;1.00
1181;DHT22;579;52.046;8.532;2023-02-11T10:44:52;8.70;1.00
1181;DHT22;579;52.046;8.532;2023-02-11T10:47:24;8.40;1.00
1181;DHT22;579;52.046;8.532;2023-02-11T10:49:53;8.20;1.00
1181;DHT22;579;52.046;8.532;2023-02-11T10:52:22;8.20;1.00
1181;DHT22;579;52.046;8.532;2023-02-11T10:54:58;7.90;1.00
1181;DHT22;579;52.046;8.532;2023-02-11T10:57:32;7.90;1.00
1181;DHT22;579;52.046;8.532;2023-02-11T11:00:30;7.60;1.00
1181;DHT22;579;52.046;8.532;2023-02-11T11:03:03;7.70;1.00
1181;DHT22;579;52.046;8.532;2023-02-11T11:05:33;7.80;1.00
1181;DHT22;579;52.046;8.532;2023-02-11T11:08:02;7.90;1.00
1181;DHT22;579;52.046;8.532;2023-02-11T11:10:37;8.00;1.00
1181;DHT22;579;52.046;8.532;2023-02-11T11:13:24;8.00;1.00
1181;DHT22;579;52.046;8.532;2023-02-11T11:18:46;8.10;1.00
1181;DHT22;579;52.046;8.532;2023-02-11T11:21:17;8.30;1.00
1181;DHT22;579;52.046;8.532;2023-02-11T11:23:50;8.30;1.00
1181;DHT22;579;52.046;8.532;2023-02-11T11:26:19;8.30;1.00
1181;DHT22;579;52.046;8.532;2023-02-11T11:28:55;8.30;1.00
1181;DHT22;579;52.046;8.532;2023-02-11T11:31:24;8.30;1.00
1181;DHT22;579;52.046;8.532;2023-02-11T11:33:56;8.60;1.00
1181;DHT22;579;52.046;8.532;2023-02-11T11:39:25;8.80;1.00
1181;DHT22;579;52.046;8.532;2023-02-11T11:41:55;8.90;1.00
1181;DHT22;579;52.046;8.532;2023-02-11T11:44:27;8.60;1.00
1181;DHT22;579;52.046;8.532;2023-02-11T11:47:17;8.70;1.00
1181;DHT22;579;52.046;8.532;2023-02-11T11:49:49;8.70;1.00
1181;DHT22;579;52.046;8.532;2023-02-11T11:52:32;8.70;1.00
1181;DHT22;579;52.046;8.532;2023-02-11T12:00:53;8.90;1.00
1181;DHT22;579;52.046;8.532;2023-02-11T12:04:06;9.30;1.00
1181;DHT22;579;52.046;8.532;2023-02-11T12:06:49;9.20;1.00
1181;DHT22;579;52.046;8.532;2023-02-11T12:09:28;8.80;1.00
1181;DHT22;579;52.046;8.532;2023-02-11T12:12:22;8.80;1.00
1181;DHT22;579;52.046;8.532;2023-02-11T12:15:06;8.80;1.00
1181;DHT22;579;52.046;8.532;2023-02-11T12:23:18;9.10;1.00
1181;DHT22;579;52.046;8.532;2023-02-11T12:25:57;9.00;1.00
1181;DHT22;579;52.046;8.532;2023-02-11T12:28:34;9.00;1.00
1181;DHT22;579;52.046;8.532;2023-02-11T12:31:17;9.10;1.00
1181;DHT22;579;52.046;8.532;2023-02-11T12:34:03;9.20;1.00
1181;DHT22;579;52.046;8.532;2023-02-11T12:36:46;9.00;1.00
1181;DHT22;579;52.046;8.532;2023-02-11T12:44:34;9.60;1.00
1181;DHT22;579;52.046;8.532;2023-02-11T12:47:12;9.40;1.00
1181;DHT22;579;52.046;8.532;2023-02-11T12:50:04;9.30;1.00
1181;DHT22;579;52.046;8.532;2023-02-11T12:52:49;9.40;1.00
1181;DHT22;579;52.046;8.532;2023-02-11T12:55:25;9.20;1.00
1181;DHT22;579;52.046;8.532;2023-02-11T12:57:56;9.50;1.00
1181;DHT22;579;52.046;8.532;2023-02-11T13:03:13;9.30;1.00
1181;DHT22;579;52.046;8.532;2023-02-11T13:05:45;9.50;1.00
1181;DHT22;579;52.046;8.532;2023-02-11T13:08:16;9.70;1.00
1181;DHT22;579;52.046;8.532;2023-02-11T13:10:46;9.80;1.00
1181;DHT22;579;52.046;8.532;2023-02-11T13:13:18;9.70;1.00
1181;DHT22;579;52.046;8.532;2023-02-11T13:15:50;9.70;1.00
1181;DHT22;579;52.046;8.532;2023-02-11T13:23:53;9.80;1.00
1181;DHT22;579;52.046;8.532;2023-02-11T13:26:26;9.90;1.00
1181;DHT22;579;52.046;8.532;2023-02-11T13:29:04;9.90;1.00
1181;DHT22;579;52.046;8.532;2023-02-11T13:31:53;9.80;1.00
1181;DHT22;579;52.046;8.532;2023-02-11T13:34:23;9.90;1.00
1181;DHT22;579;52.046;8.532;2023-02-11T13:36:54;10.00;1.00
1181;DHT22;579;52.046;8.532;2023-02-11T13:42:14;9.60;1.00
1181;DHT22;579;52.046;8.532;2023-02-11T13:44:42;9.90;1.00
1181;DHT22;579;52.046;8.532;2023-02-11T13:47:24;10.20;1.00
1181;DHT22;579;52.046;8.532;2023-02-11T13:49:52;10.20;1.00
1181;DHT22;579;52.046;8.532;2023-02-11T13:52:23;10.30;1.00
1181;DHT22;579;52.046;8.532;2023-02-11T13:54:52;10.30;1.00
1181;DHT22;579;52.046;8.532;2023-02-11T13:57:35;10.10;1.00
1181;DHT22;579;52.046;8.532;2023-02-11T14:00:48;10.20;1.00
1181;DHT22;579;52.046;8.532;2023-02-11T14:03:30;10.30;1.00
1181;DHT22;579;52.046;8.532;2023-02-11T14:06:19;10.10;1.00
1181;DHT22;579;52.046;8.532;2023-02-11T14:09:33;9.80;1.00
1181;DHT22;579;52.046;8.532;2023-02-11T14:12:30;9.70;1.00
1181;DHT22;579;52.046;8.532;2023-02-11T14:15:00;9.70;1.00
1181;DHT22;579;52.046;8.532;2023-02-11T14:22:22;9.70;1.00
1181;DHT22;579;52.046;8.532;2023-02-11T14:24:53;9.70;1.00
1181;DHT22;579;52.046;8.532;2023-02-11T14:30:43;9.80;1.00
1181;DHT22;579;52.046;8.532;2023-02-11T14:33:19;10.00;1.00
1181;DHT22;579;52.046;8.532;2023-02-11T14:36:03;10.10;1.00
1181;DHT22;579;52.046;8.532;2023-02-11T14:43:40;9.90;1.00
1181;DHT22;579;52.046;8.532;2023-02-11T14:46:10;10.20;1.00
1181;DHT22;579;52.046;8.532;2023-02-11T14:48:38;10.30;1.00
1181;DHT22;579;52.046;8.532;2023-02-11T14:51:12;10.30;1.00
1181;DHT22;579;52.046;8.532;2023-02-11T14:53:45;10.20;1.00
1181;DHT22;579;52.046;8.532;2023-02-11T14:56:17;10.40;1.00
1181;DHT22;579;52.046;8.532;2023-02-11T14:58:47;10.30;1.00
1181;DHT22;579;52.046;8.532;2023-02-11T15:05:21;10.40;1.00
1181;DHT22;579;52.046;8.532;2023-02-11T15:07:53;10.70;1.00
1181;DHT22;579;52.046;8.532;2023-02-11T15:10:26;10.40;1.00
1181;DHT22;579;52.046;8.532;2023-02-11T15:12:55;10.40;1.00
1181;DHT22;579;52.046;8.532;2023-02-11T15:15:22;10.40;1.00
1181;DHT22;579;52.046;8.532;2023-02-11T15:17:49;10.20;1.00
1181;DHT22;579;52.046;8.532;2023-02-11T15:20:20;10.20;1.00
1181;DHT22;579;52.046;8.532;2023-02-11T15:27:47;10.30;1.00
1181;DHT22;579;52.046;8.532;2023-02-11T15:30:24;10.40;1.00
1181;DHT22;579;52.046;8.532;2023-02-11T15:32:56;10.30;1.00
1181;DHT22;579;52.046;8.532;2023-02-11T15:35:25;10.30;1.00
1181;DHT22;579;52.046;8.532;2023-02-11T15:37:53;10.20;1.00
1181;DHT22;579;52.046;8.532;2023-02-11T15:40:22;10.00;1.00
1181;DHT22;579;52.046;8.532;2023-02-11T15:45:58;10.00;1.00
1181;DHT22;579;52.046;8.532;2023-02-11T15:48:33;10.00;1.00
1181;DHT22;579;52.046;8.532;2023-02-11T15:51:04;10.10;1.00
1181;DHT22;579;52.046;8.532;2023-02-11T15:53:37;10.40;1.00
1181;DHT22;579;52.046;8.532;2023-02-11T15:56:10;10.20;1.00
1181;DHT22;579;52.046;8.532;2023-02-11T15:58:40;10.40;1.00
1181;DHT22;579;52.046;8.532;2023-02-11T16:04:03;10.20;1.00
1181;DHT22;579;52.046;8.532;2023-02-11T16:06:36;10.40;1.00
1181;DHT22;579;52.046;8.532;2023-02-11T16:09:18;10.20;1.00
1181;DHT22;579;52.046;8.532;2023-02-11T16:11:54;10.40;1.00
1181;DHT22;579;52.046;8.532;2023-02-11T16:14:27;10.10;1.00
1181;DHT22;579;52.046;8.532;2023-02-11T16:16:57;10.10;1.00
1181;DHT22;579;52.046;8.532;2023-02-11T16:19:26;10.20;1.00
1181;DHT22;579;52.046;8.532;2023-02-11T16:24:46;10.50;1.00
1181;DHT22;579;52.046;8.532;2023-02-11T16:27:20;10.30;1.00
1181;DHT22;579;52.046;8.532;2023-02-11T16:29:48;10.20;1.00
1181;DHT22;579;52.046;8.532;2023-02-11T16:32:16;10.20;1.00
1181;DHT22;579;52.046;8.532;2023-02-11T16:34:44;10.30;1.00
1181;DHT22;579;52.046;8.532;2023-02-11T16:37:11;10.30;1.00
1181;DHT22;579;52.046;8.532;2023-02-11T16:39:37;10.30;1.00
1181;DHT22;579;52.046;8.532;2023-02-11T16:46:19;10.10;1.00
1181;DHT22;579;52.046;8.532;2023-02-11T16:48:45;10.10;1.00
1181;DHT22;579;52.046;8.532;2023-02-11T16:51:12;10.00;1.00
1181;DHT22;579;52.046;8.532;2023-02-11T16:53:38;9.90;1.00
1181;DHT22;579;52.046;8.532;2023-02-11T16:56:04;9.90;1.00
1181;DHT22;579;52.046;8.532;2023-02-11T16:58:31;10.10;1.00
1181;DHT22;579;52.046;8.532;2023-02-11T17:00:58;10.20;1.00
1181;DHT22;579;52.046;8.532;2023-02-11T17:07:48;10.30;1.00
1181;DHT22;579;52.046;8.532;2023-02-11T17:10:15;10.10;1.00
1181;DHT22;579;52.046;8.532;2023-02-11T17:12:43;10.00;1.00
1181;DHT22;579;52.046;8.532;2023-02-11T17:15:09;9.90;1.00
1181;DHT22;579;52.046;8.532;2023-02-11T17:17:35;10.20;1.00
1181;DHT22;579;52.046;8.532;2023-02-11T17:20:02;10.30;1.00
1181;DHT22;579;52.046;8.532;2023-02-11T17:22:29;10.20;1.00
1181;DHT22;579;52.046;8.532;2023-02-11T17:29:59;9.80;1.00
1181;DHT22;579;52.046;8.532;2023-02-11T17:32:26;9.90;1.00
1181;DHT22;579;52.046;8.532;2023-02-11T17:34:52;9.70;1.00
1181;DHT22;579;52.046;8.532;2023-02-11T17:37:18;9.70;1.00
1181;DHT22;579;52.046;8.532;2023-02-11T17:39:44;9.60;1.00
1181;DHT22;579;52.046;8.532;2023-02-11T17:42:11;9.50;1.00
1181;DHT22;579;52.046;8.532;2023-02-11T17:44:39;9.70;1.00
1181;DHT22;579;52.046;8.532;2023-02-11T17:52:10;9.70;1.00
1181;DHT22;579;52.046;8.532;2023-02-11T17:54:37;9.80;1.00
1181;DHT22;579;52.046;8.532;2023-02-11T17:57:03;9.80;1.00
1181;DHT22;579;52.046;8.532;2023-02-11T17:59:30;9.70;1.00
1181;DHT22;579;52.046;8.532;2023-02-11T18:02:00;9.60;1.00
1181;DHT22;579;52.046;8.532;2023-02-11T18:04:28;9.60;1.00
1181;DHT22;579;52.046;8.532;2023-02-11T18:06:54;9.60;1.00
1181;DHT22;579;52.046;8.532;2023-02-11T18:11:57;9.90;1.00
1181;DHT22;579;52.046;8.532;2023-02-11T18:14:23;10.10;1.00
1181;DHT22;579;52.046;8.532;2023-02-11T18:16:49;10.10;1.00
1181;DHT22;579;52.046;8.532;2023-02-11T18:19:17;9.90;1.00
1181;DHT22;579;52.046;8.532;2023-02-11T18:21:43;10.10;1.00
1181;DHT22;579;52.046;8.532;2023-02-11T18:24:13;9.90;1.00
1181;DHT22;579;52.046;8.532;2023-02-11T18:26:39;9.90;1.00
1181;DHT22;579;52.046;8.532;2023-02-11T18:33:48;10.00;1.00
1181;DHT22;579;52.046;8.532;2023-02-11T18:36:15;10.00;1.00
1181;DHT22;579;52.046;8.532;2023-02-11T18:38:42;10.00;1.00
1181;DHT22;579;52.046;8.532;2023-02-11T18:41:09;9.90;1.00
1181;DHT22;579;52.046;8.532;2023-02-11T18:43:36;10.00;1.00
1181;DHT22;579;52.046;8.532;2023-02-11T18:46:06;10.20;1.00
1181;DHT22;579;52.046;8.532;2023-02-11T18:48:34;10.20;1.00
1181;DHT22;579;52.046;8.532;2023-02-11T18:53:35;10.40;1.00
1181;DHT22;579;52.046;8.532;2023-02-11T18:56:06;10.20;1.00
1181;DHT22;579;52.046;8.532;2023-02-11T18:58:33;9.90;1.00
1181;DHT22;579;52.046;8.532;2023-02-11T19:00:59;10.00;1.00
1181;DHT22;579;52.046;8.532;2023-02-11T19:03:25;10.10;1.00
1181;DHT22;579;52.046;8.532;2023-02-11T19:05:51;10.20;1.00
1181;DHT22;579;52.046;8.532;2023-02-11T19:08:18;10.20;1.00
1181;DHT22;579;52.046;8.532;2023-02-11T19:15:59;9.90;1.00
1181;DHT22;579;52.046;8.532;2023-02-11T19:18:25;9.80;1.00
1181;DHT22;579;52.046;8.532;2023-02-11T19:20:51;10.00;1.00
1181;DHT22;579;52.046;8.532;2023-02-11T19:23:18;10.00;1.00
1181;DHT22;579;52.046;8.532;2023-02-11T19:25:45;10.00;1.00
1181;DHT22;579;52.046;8.532;2023-02-11T19:28:13;10.00;1.00
1181;DHT22;579;52.046;8.532;2023-02-11T19:30:40;10.00;1.00
1181;DHT22;579;52.046;8.532;2023-02-11T19:35:47;10.00;1.00
1181;DHT22;579;52.046;8.532;2023-02-11T19:38:13;9.80;1.00
1181;DHT22;579;52.046;8.532;2023-02-11T19:40:42;9.90;1.00
1181;DHT22;579;52.046;8.532;2023-02-11T19:43:08;9.80;1.00
1181;DHT22;579;52.046;8.532;2023-02-11T19:45:36;9.70;1.00
1181;DHT22;579;52.046;8.532;2023-02-11T19:48:03;9.80;1.00
1181;DHT22;579;52.046;8.532;2023-02-11T19:50:29;9.90;1.00
1181;DHT22;579;52.046;8.532;2023-02-11T19:58:00;10.30;1.00
1181;DHT22;579;52.046;8.532;2023-02-11T20:00:26;10.40;1.00
1181;DHT22;579;52.046;8.532;2023-02-11T20:02:53;10.30;1.00
1181;DHT22;579;52.046;8.532;2023-02-11T20:05:19;10.00;1.00
1181;DHT22;579;52.046;8.532;2023-02-11T20:07:46;10.10;1.00
1181;DHT22;579;52.046;8.532;2023-02-11T20:10:12;10.50;1.00
1181;DHT22;579;52.046;8.532;2023-02-11T20:12:38;10.50;1.00
1181;DHT22;579;52.046;8.532;2023-02-11T20:20:11;10.10;1.00
1181;DHT22;579;52.046;8.532;2023-02-11T20:22:37;10.00;1.00
1181;DHT22;579;52.046;8.532;2023-02-11T20:25:04;9.90;1.00
1181;DHT22;579;52.046;8.532;2023-02-11T20:27:31;9.80;1.00
1181;DHT22;579;52.046;8.532;2023-02-11T20:29:57;9.80;1.00
1181;DHT22;579;52.046;8.532;2023-02-11T20:32:24;9.90;1.00
1181;DHT22;579;52.046;8.532;2023-02-11T20:34:50;9.80;1.00
1181;DHT22;579;52.046;8.532;2023-02-11T20:42:20;10.60;1.00
1181;DHT22;579;52.046;8.532;2023-02-11T20:44:47;10.50;1.00
1181;DHT22;579;52.046;8.532;2023-02-11T20:47:14;10.30;1.00
1181;DHT22;579;52.046;8.532;2023-02-11T20:52:07;10.30;1.00
1181;DHT22;579;52.046;8.532;2023-02-11T20:54:33;10.30;1.00
1181;DHT22;579;52.046;8.532;2023-02-11T20:57:00;10.20;1.00
1181;DHT22;579;52.046;8.532;2023-02-11T21:02:02;10.10;1.00
1181;DHT22;579;52.046;8.532;2023-02-11T21:04:29;10.30;1.00
1181;DHT22;579;52.046;8.532;2023-02-11T21:06:58;10.40;1.00
1181;DHT22;579;52.046;8.532;2023-02-11T21:09:26;10.40;1.00
1181;DHT22;579;52.046;8.532;2023-02-11T21:11:54;10.60;1.00
1181;DHT22;579;52.046;8.532;2023-02-11T21:14:22;10.60;1.00
1181;DHT22;579;52.046;8.532;2023-02-11T21:16:50;10.70;1.00
1181;DHT22;579;52.046;8.532;2023-02-11T21:21:56;10.20;1.00
1181;DHT22;579;52.046;8.532;2023-02-11T21:24:25;10.60;1.00
1181;DHT22;579;52.046;8.532;2023-02-11T21:26:51;10.40;1.00
1181;DHT22;579;52.046;8.532;2023-02-11T21:29:17;10.80;1.00